Presque Isle, Michigan
Current Conditions -  °F | °C
As of 9:19 AM on Thursday 27 Nov 2014 (Local Time) from KAPN Reporting Station
Light Snow Light Snow  
Wind Chill: 14°   Ceiling: 1500
Heat Index: 26°   Visibility: 1.5mi
Dew Point: 23°   Wind: 15mph
Humidity: 88%   Direction: 330°NNW
Pressure: 30.13"   Gusts: 22mph
Location:  45.3°N, 83.48°W
Report Text: KAPN 271419Z AUTO 33013G19KT 1 1/2SM -SN BR BKN015 OVC023 M03/M05 A3013 RMK AO2 P0000 T10331050
Loading
Personal Weather Stations






























Interactive Weather Map New forecast layout! Learn more

10-Day Weather Forecast

Advertisements
Track Severe Weather on mobile